Time;durP1;ratioP1;P1;durP2;ratioP2;P2;SDS_P1;SDS_P2;PMS_P1;PMS_P2;Temp;Humidity;BMP_temperature;BMP_pressure;BME280_temperature;BME280_humidity;BME280_pressure;Samples;Min_cycle;Max_cycle;Signal;HPM_P1;HPM_P2
2023/04/29 06:44:37;;;;;;;11.23;10.07;;;;;;;8.72;56.98;94927.97;5133995;27;20573;-74
2023/04/29 06:47:04;;;;;;;11.43;10.43;;;;;;;8.72;57.20;94927.19;5132753;28;20269;-74
2023/04/29 06:49:31;;;;;;;10.27;9.38;;;;;;;8.70;56.35;94933.00;5132663;28;20607;-74
2023/04/29 06:52:00;;;;;;;11.65;10.45;;;;;;;8.73;56.06;94928.78;5149686;27;20230;-74
2023/04/29 06:54:27;;;;;;;11.55;10.35;;;;;;;8.76;56.56;94934.38;5133483;28;20201;-75
2023/04/29 06:56:54;;;;;;;12.23;11.07;;;;;;;8.78;56.52;94925.78;5133559;28;20186;-74
2023/04/29 06:59:21;;;;;;;12.00;10.77;;;;;;;8.88;56.75;94934.38;5133419;28;20180;-74
2023/04/29 07:01:50;;;;;;;13.30;10.95;;;;;;;8.94;57.06;94931.41;5132327;28;20198;-74
2023/04/29 07:04:17;;;;;;;13.15;11.85;;;;;;;9.02;56.73;94930.47;5132567;28;20249;-73
2023/04/29 07:06:45;;;;;;;12.95;11.73;;;;;;;9.02;56.19;94914.75;5132796;28;20187;-73
2023/04/29 07:09:12;;;;;;;15.13;11.80;;;;;;;9.06;55.94;94912.09;5133048;28;20240;-73
2023/04/29 07:11:39;;;;;;;12.38;11.00;;;;;;;9.09;55.53;94916.91;5149488;27;20195;-74
2023/04/29 07:14:06;;;;;;;12.63;11.23;;;;;;;9.09;55.30;94917.72;5133122;28;20285;-69
2023/04/29 07:16:33;;;;;;;13.98;12.52;;;;;;;9.06;55.13;94915.66;5131983;28;20202;-71
2023/04/29 07:19:01;;;;;;;13.57;12.30;;;;;;;9.13;55.44;94906.81;5133384;28;20175;-70
2023/04/29 07:21:31;;;;;;;13.38;11.98;;;;;;;9.27;55.26;94918.25;5133081;28;20198;-70
2023/04/29 07:24:01;;;;;;;12.52;11.30;;;;;;;9.38;54.88;94915.81;5132104;28;20282;-71
2023/04/29 07:26:27;;;;;;;13.35;12.05;;;;;;;9.47;54.27;94905.44;5132014;28;20240;-71
2023/04/29 07:28:54;;;;;;;13.95;11.85;;;;;;;9.61;54.36;94905.84;5131887;28;20195;-71
2023/04/29 07:31:21;;;;;;;14.48;12.98;;;;;;;9.72;53.92;94908.91;5132834;28;20205;-72
2023/04/29 07:33:48;;;;;;;14.25;12.75;;;;;;;9.83;53.60;94903.69;5131685;28;20271;-73
2023/04/29 07:36:18;;;;;;;14.82;12.43;;;;;;;9.95;53.45;94900.06;5132688;28;20206;-72
2023/04/29 07:38:44;;;;;;;15.45;13.85;;;;;;;10.05;53.28;94900.34;5132685;28;20179;-71
2023/04/29 07:41:11;;;;;;;13.13;11.88;;;;;;;10.25;54.88;94906.81;5132381;27;20190;-71
2023/04/29 07:43:41;;;;;;;13.45;12.15;;;;;;;10.39;53.24;94906.38;5131846;28;20237;-71
2023/04/29 07:46:09;;;;;;;13.13;11.75;;;;;;;10.49;52.31;94905.03;5132009;28;20207;-72
2023/04/29 07:48:38;;;;;;;12.75;11.55;;;;;;;10.62;51.80;94906.53;5132148;28;20520;-72
2023/04/29 07:51:07;;;;;;;11.88;10.85;;;;;;;10.75;51.01;94904.50;5131753;28;20222;-72
2023/04/29 07:53:40;;;;;;;12.45;11.25;;;;;;;10.85;50.84;94898.41;5131259;28;20237;-73
2023/04/29 07:56:09;;;;;;;12.43;10.90;;;;;;;11.01;50.32;94887.38;5117683;28;20222;-71
2023/04/29 07:58:36;;;;;;;10.98;9.68;;;;;;;11.22;50.37;94890.59;5118398;28;20188;-72
2023/04/29 08:01:06;;;;;;;11.05;10.00;;;;;;;11.43;51.32;94881.94;5118313;28;20180;-74
2023/04/29 08:03:33;;;;;;;11.90;10.70;;;;;;;11.63;50.30;94879.19;5134381;27;20208;-72
2023/04/29 08:06:02;;;;;;;11.25;10.20;;;;;;;11.78;50.62;94886.59;5117367;28;20200;-72
2023/04/29 08:08:29;;;;;;;11.77;10.43;;;;;;;11.86;48.70;94887.56;5118228;28;20256;-72
2023/04/29 08:10:57;;;;;;;11.55;10.35;;;;;;;11.87;49.43;94873.38;5117315;28;20191;-73
2023/04/29 08:13:24;;;;;;;11.63;10.40;;;;;;;11.93;50.73;94877.44;5118136;28;20207;-72
2023/04/29 08:15:51;;;;;;;11.57;10.40;;;;;;;11.99;49.64;94870.47;5118168;28;20195;-72
2023/04/29 08:18:18;;;;;;;11.77;10.57;;;;;;;12.00;49.03;94874.81;5118348;28;20267;-72
2023/04/29 08:20:45;;;;;;;11.68;10.57;;;;;;;12.07;48.70;94871.38;5117164;28;20290;-72
2023/04/29 08:23:11;;;;;;;11.65;10.45;;;;;;;12.16;48.52;94866.41;5117045;28;20200;-72
2023/04/29 08:25:41;;;;;;;12.40;11.10;;;;;;;12.35;49.97;94859.25;5117667;28;20191;-73
2023/04/29 08:28:09;;;;;;;13.73;12.40;;;;;;;12.55;49.32;94865.50;5116654;28;20260;-75
2023/04/29 08:30:38;;;;;;;12.48;11.18;;;;;;;12.63;48.21;94870.75;5117800;28;20184;-73
2023/04/29 08:33:05;;;;;;;12.88;11.65;;;;;;;12.74;50.54;94874.50;5117075;28;20215;-70
2023/04/29 08:35:32;;;;;;;12.25;11.15;;;;;;;12.91;47.23;94870.41;5116909;28;20257;-70
2023/04/29 08:37:59;;;;;;;12.13;10.93;;;;;;;13.04;47.18;94870.22;5134095;27;20202;-71
2023/04/29 08:40:27;;;;;;;11.52;10.43;;;;;;;13.15;46.79;94865.63;5117183;28;20295;-70
2023/04/29 08:42:54;;;;;;;11.93;10.73;;;;;;;13.16;45.09;94856.13;5116567;28;20261;-70
2023/04/29 08:45:23;;;;;;;11.63;10.43;;;;;;;13.12;44.57;94863.59;5116805;28;20196;-71
2023/04/29 08:47:50;;;;;;;13.82;10.20;;;;;;;13.14;44.27;94855.69;5116330;28;20561;-70
2023/04/29 08:50:17;;;;;;;11.05;10.05;;;;;;;13.20;46.25;94852.22;5116871;28;20188;-71
2023/04/29 08:52:43;;;;;;;10.93;9.63;;;;;;;13.33;47.18;94849.28;5116827;28;20180;-70
2023/04/29 08:55:10;;;;;;;10.50;9.50;;;;;;;13.42;43.78;94844.22;5133779;27;20502;-69
2023/04/29 08:57:38;;;;;;;10.48;9.40;;;;;;;13.56;43.66;94849.16;5116597;28;20195;-74
2023/04/29 09:00:09;;;;;;;9.63;8.63;;;;;;;13.84;44.35;94845.94;5116851;28;20204;-70
2023/04/29 09:02:39;;;;;;;9.45;8.45;;;;;;;13.95;47.22;94846.84;5117429;28;20184;-70
2023/04/29 09:05:10;;;;;;;14.10;9.48;;;;;;;14.02;43.62;94844.16;5116206;28;20215;-70
2023/04/29 09:07:38;;;;;;;9.88;8.38;;;;;;;14.04;44.13;94840.97;5115266;28;20206;-70
2023/04/29 09:10:05;;;;;;;9.75;8.75;;;;;;;13.97;43.24;94838.91;5116322;28;20237;-70
2023/04/29 09:12:32;;;;;;;9.23;8.43;;;;;;;13.96;42.43;94834.56;5116496;28;20203;-70
2023/04/29 09:15:39;;;;;;;9.10;8.07;;;;;;;14.04;42.70;94841.78;5115631;28;20216;-70
2023/04/29 09:19:11;;;;;;;8.50;7.13;;;;;;;14.01;42.78;94834.22;5077724;28;20644;-73
2023/04/29 09:21:56;;;;;;;7.63;6.93;;;;;;;14.00;42.76;94840.16;5115564;28;20207;-72
2023/04/29 09:24:30;;;;;;;7.22;6.63;;;;;;;14.05;42.16;94831.47;5116228;28;20523;-72
2023/04/29 09:26:59;;;;;;;9.52;7.38;;;;;;;14.12;43.07;94839.88;5116184;28;20222;-72
2023/04/29 09:29:25;;;;;;;8.52;7.15;;;;;;;14.25;41.99;94830.09;5116150;28;20220;-72
2023/04/29 09:31:53;;;;;;;7.10;6.50;;;;;;;14.34;41.19;94833.38;5115671;28;20198;-74
2023/04/29 09:34:34;;;;;;;8.23;6.43;;;;;;;14.43;42.74;94825.50;5098858;28;20215;-72
2023/04/29 09:37:06;;;;;;;8.60;6.82;;;;;;;14.58;40.85;94822.88;5115320;28;20209;-72
2023/04/29 09:39:39;;;;;;;7.07;6.38;;;;;;;14.79;41.38;94814.72;5116683;28;20198;-73
2023/04/29 09:42:09;;;;;;;8.23;6.65;;;;;;;15.05;41.10;94819.22;5115316;28;20230;-73
2023/04/29 09:44:42;;;;;;;9.65;6.95;;;;;;;15.09;42.57;94816.47;5074946;28;20192;-73
2023/04/29 09:47:10;;;;;;;7.50;6.80;;;;;;;15.07;40.01;94816.88;5074437;28;20262;-72
2023/04/29 09:49:44;;;;;;;7.95;6.75;;;;;;;14.91;40.84;94811.59;5075595;28;20197;-72
2023/04/29 09:52:19;;;;;;;8.18;6.20;;;;;;;15.19;42.68;94812.19;5074063;28;20315;-72
2023/04/29 09:54:46;;;;;;;6.78;5.88;;;;;;;15.42;42.10;94801.56;5075693;28;20208;-72
2023/04/29 09:57:15;;;;;;;7.00;5.78;;;;;;;15.48;42.85;94797.22;5075497;28;20177;-72
2023/04/29 09:59:46;;;;;;;7.45;6.20;;;;;;;15.59;41.97;94795.28;5075297;28;20192;-72
2023/04/29 10:02:16;;;;;;;6.20;5.57;;;;;;;15.69;39.43;94784.63;5075568;28;20215;-73
2023/04/29 10:04:45;;;;;;;7.65;6.20;;;;;;;15.66;38.19;94783.41;5074601;28;20205;-72
2023/04/29 10:07:16;;;;;;;6.20;5.60;;;;;;;15.62;38.02;94782.59;5074717;28;20201;-73
2023/04/29 10:09:46;;;;;;;6.60;5.90;;;;;;;15.55;38.09;94780.56;5074231;28;20196;-72
2023/04/29 10:12:15;;;;;;;6.82;5.97;;;;;;;15.47;38.33;94776.19;5074536;28;20608;-72
2023/04/29 10:14:57;;;;;;;7.38;5.72;;;;;;;15.41;38.49;94770.19;5075433;28;20213;-73
2023/04/29 10:17:32;;;;;;;5.30;4.80;;;;;;;15.39;38.06;94769.00;5074020;28;20205;-73
2023/04/29 10:20:05;;;;;;;7.03;6.20;;;;;;;15.32;38.20;94772.56;5074199;28;20208;-72
2023/04/29 10:22:41;;;;;;;7.05;5.78;;;;;;;15.22;37.86;94775.28;5074894;28;20212;-72
2023/04/29 10:25:10;;;;;;;8.73;6.03;;;;;;;15.12;37.76;94771.25;5074527;28;20185;-73
2023/04/29 10:27:37;;;;;;;6.00;5.50;;;;;;;15.09;38.99;94769.25;5074048;28;20201;-73
2023/04/29 10:30:10;;;;;;;7.35;5.15;;;;;;;15.12;38.19;94768.47;5074982;28;20189;-72
2023/04/29 10:32:40;;;;;;;6.93;4.50;;;;;;;15.06;39.68;94765.28;5074823;28;20224;-75
2023/04/29 10:35:08;;;;;;;4.78;4.35;;;;;;;15.03;39.25;94763.28;5074338;28;20307;-75
2023/04/29 10:37:41;;;;;;;6.72;4.47;;;;;;;15.06;39.84;94761.69;5074222;28;20205;-75
2023/04/29 10:40:16;;;;;;;4.57;4.03;;;;;;;15.09;39.04;94766.47;5074304;28;20198;-72
2023/04/29 10:42:46;;;;;;;5.25;4.47;;;;;;;15.15;39.20;94762.94;5084049;28;20310;-72
2023/04/29 10:45:21;;;;;;;7.97;4.35;;;;;;;15.23;39.63;94758.22;5114466;28;20211;-73
2023/04/29 10:48:17;;;;;;;4.57;3.63;;;;;;;15.33;40.48;94762.22;5114669;28;20203;-73
2023/04/29 10:51:06;;;;;;;4.93;3.58;;;;;;;15.49;39.32;94756.31;5105918;28;20306;-74
2023/04/29 10:53:37;;;;;;;4.03;3.58;;;;;;;15.54;37.11;94761.50;5114510;28;20195;-75
2023/04/29 10:56:08;;;;;;;4.78;3.47;;;;;;;15.50;37.49;94749.56;5114691;28;20278;-75
2023/04/29 10:58:38;;;;;;;3.65;3.25;;;;;;;15.53;36.00;94748.78;5115035;28;20207;-75
2023/04/29 11:01:06;;;;;;;6.20;3.25;;;;;;;15.52;35.07;94750.78;5115487;28;20244;-75
2023/04/29 11:03:53;;;;;;;3.30;3.00;;;;;;;15.56;36.74;94746.03;5115448;28;20199;-74
2023/04/29 11:06:28;;;;;;;4.50;3.35;;;;;;;15.54;37.29;94751.19;5115721;28;20187;-74
2023/04/29 11:09:04;;;;;;;4.93;3.22;;;;;;;15.49;36.72;94751.56;5115134;28;20522;-72
2023/04/29 11:11:57;;;;;;;4.38;2.60;;;;;;;15.44;36.71;94751.16;5114178;28;20199;-71
2023/04/29 11:14:26;;;;;;;2.83;2.50;;;;;;;15.42;32.90;94745.97;5115328;28;20284;-71
2023/04/29 11:16:58;;;;;;;2.85;2.55;;;;;;;15.41;33.76;94744.41;5114608;28;20256;-72
2023/04/29 11:19:33;;;;;;;2.38;2.17;;;;;;;15.38;33.82;94748.75;5113001;28;20227;-72
2023/04/29 11:22:16;;;;;;;3.65;2.85;;;;;;;15.36;34.08;94745.56;5114445;28;20210;-72
2023/04/29 11:25:17;;;;;;;3.05;2.75;;;;;;;15.35;33.55;94740.41;5115778;28;20264;-73
2023/04/29 11:27:47;;;;;;;3.00;2.70;;;;;;;15.32;33.48;94744.78;5112397;28;20204;-71
2023/04/29 11:30:15;;;;;;;2.97;2.40;;;;;;;15.27;33.65;94742.34;5116909;28;20179;-72
2023/04/29 11:32:42;;;;;;;3.97;2.33;;;;;;;15.23;34.58;94746.31;5118573;28;20233;-71
2023/04/29 11:35:13;;;;;;;3.25;2.47;;;;;;;15.19;33.91;94739.94;5119156;28;20227;-72
2023/04/29 11:37:43;;;;;;;3.25;2.75;;;;;;;15.17;34.36;94745.88;5118192;28;20248;-71
2023/04/29 11:40:16;;;;;;;4.53;2.70;;;;;;;15.14;33.70;94741.91;5117916;28;20298;-71
2023/04/29 11:42:45;;;;;;;4.55;2.60;;;;;;;15.14;33.79;94738.31;5118876;28;20242;-71
2023/04/29 11:45:15;;;;;;;2.30;2.20;;;;;;;15.13;33.96;94736.75;5118907;28;20183;-72
2023/04/29 11:47:44;;;;;;;2.92;2.60;;;;;;;15.11;33.63;94744.69;5118874;28;20213;-72
2023/04/29 11:50:16;;;;;;;3.45;2.60;;;;;;;15.08;34.30;94739.91;5117831;28;20633;-72
2023/04/29 11:52:47;;;;;;;3.80;2.78;;;;;;;15.07;33.82;94738.28;5100689;28;20212;-71
2023/04/29 11:55:15;;;;;;;2.60;2.40;;;;;;;15.06;33.58;94736.69;5117607;28;20212;-71
2023/04/29 11:57:44;;;;;;;2.80;2.30;;;;;;;15.06;34.05;94731.16;5118678;27;20206;-74
2023/04/29 12:00:12;;;;;;;4.15;2.30;;;;;;;15.03;34.94;94734.69;5118151;28;20207;-74
2023/04/29 12:02:45;;;;;;;3.97;2.60;;;;;;;15.02;35.69;94739.47;5118791;28;20236;-74
2023/04/29 12:05:14;;;;;;;4.45;2.25;;;;;;;15.01;35.29;94729.56;5118582;28;20526;-74
2023/04/29 12:07:41;;;;;;;2.53;2.33;;;;;;;15.02;36.13;94728.34;5118490;28;20199;-70
2023/04/29 12:10:09;;;;;;;2.95;2.28;;;;;;;15.06;36.75;94731.16;5118286;28;20191;-73
2023/04/29 12:12:39;;;;;;;2.72;2.13;;;;;;;15.10;36.30;94727.19;5118694;28;20202;-74
2023/04/29 12:15:11;;;;;;;2.88;2.17;;;;;;;15.10;36.37;94726.41;5117512;28;20560;-74
2023/04/29 12:17:41;;;;;;;3.17;2.45;;;;;;;15.10;35.57;94718.84;5117328;28;20195;-74
2023/04/29 12:20:10;;;;;;;2.20;2.10;;;;;;;15.09;35.80;94722.03;5118117;28;20204;-75
2023/04/29 12:22:38;;;;;;;3.30;2.45;;;;;;;15.09;34.78;94720.06;5118032;28;20192;-74
2023/04/29 12:25:07;;;;;;;3.20;2.90;;;;;;;15.10;34.24;94713.31;5118102;28;20505;-70
2023/04/29 12:27:37;;;;;;;2.90;1.95;;;;;;;15.08;33.85;94712.91;5117903;28;20234;-75
2023/04/29 12:30:14;;;;;;;2.38;2.17;;;;;;;15.09;34.57;94717.28;5118330;28;20192;-73
2023/04/29 12:32:43;;;;;;;2.40;2.20;;;;;;;15.06;34.68;94720.03;5117364;28;20511;-74
2023/04/29 12:35:17;;;;;;;2.42;2.10;;;;;;;15.02;35.36;94716.44;5118067;28;20200;-74
2023/04/29 12:37:48;;;;;;;2.20;2.00;;;;;;;15.00;34.58;94710.50;5117040;28;20671;-73
2023/04/29 12:40:19;;;;;;;2.35;2.15;;;;;;;15.01;35.00;94712.88;5117296;28;20218;-73
2023/04/29 12:42:47;;;;;;;2.55;2.15;;;;;;;15.01;33.99;94699.00;5117738;28;20322;-73
2023/04/29 12:45:38;;;;;;;3.45;2.40;;;;;;;15.02;35.01;94697.81;5117852;28;20196;-73
2023/04/29 12:48:06;;;;;;;2.83;2.05;;;;;;;15.04;36.15;94698.22;5117402;28;20184;-72
2023/04/29 12:50:34;;;;;;;2.10;1.90;;;;;;;15.05;36.35;94705.34;5116978;28;20232;-72
2023/04/29 12:53:01;;;;;;;2.75;2.40;;;;;;;15.06;35.91;94704.16;5116529;28;20223;-73
2023/04/29 12:55:29;;;;;;;2.38;2.20;;;;;;;15.06;35.45;94703.38;5116891;28;20214;-69
2023/04/29 12:57:56;;;;;;;2.78;2.40;;;;;;;15.08;34.82;94699.03;5117384;28;20184;-74
2023/04/29 13:00:23;;;;;;;2.60;2.10;;;;;;;15.13;34.66;94698.63;5116451;28;20627;-72
2023/04/29 13:02:57;;;;;;;3.65;2.20;;;;;;;15.14;35.98;94691.91;5117365;28;20634;-72
2023/04/29 13:05:24;;;;;;;2.30;2.10;;;;;;;15.19;36.02;94695.50;5116685;28;20192;-73
2023/04/29 13:07:52;;;;;;;2.33;2.00;;;;;;;15.24;35.39;94698.69;5117663;28;20261;-73
2023/04/29 13:10:20;;;;;;;3.13;2.30;;;;;;;15.28;35.89;94693.13;5116568;28;20204;-73
2023/04/29 13:12:47;;;;;;;2.17;1.98;;;;;;;15.33;37.02;94690.78;5116104;28;20206;-73
2023/04/29 13:15:17;;;;;;;2.10;1.90;;;;;;;15.37;37.77;94688.00;5116232;28;20211;-72
2023/04/29 13:17:48;;;;;;;2.45;2.20;;;;;;;15.40;38.94;94685.25;5115713;28;20252;-71
2023/04/29 13:20:16;;;;;;;6.50;2.42;;;;;;;15.45;38.34;94686.84;5116517;28;20192;-70
2023/04/29 13:22:47;;;;;;;2.22;2.00;;;;;;;15.45;38.59;94686.03;5115917;28;20295;-70
2023/04/29 13:25:15;;;;;;;2.50;2.00;;;;;;;15.43;38.61;94669.75;5115717;28;20630;-70
2023/04/29 13:27:42;;;;;;;4.35;2.28;;;;;;;15.44;39.78;94676.13;5117210;28;20204;-70
2023/04/29 13:30:13;;;;;;;3.00;2.10;;;;;;;15.47;39.11;94673.34;5115951;28;20279;-69
2023/04/29 13:32:41;;;;;;;2.38;2.15;;;;;;;15.49;38.92;94675.72;5116358;28;20196;-70
2023/04/29 13:35:12;;;;;;;3.05;2.38;;;;;;;15.52;38.93;94684.06;5116718;28;20261;-70
2023/04/29 13:37:42;;;;;;;2.30;2.10;;;;;;;15.57;36.88;94678.13;5116804;28;20252;-70
2023/04/29 13:40:10;;;;;;;3.22;2.30;;;;;;;15.61;37.13;94678.13;5117826;28;20195;-70
2023/04/29 13:42:37;;;;;;;2.17;1.98;;;;;;;15.61;36.56;94678.94;5117098;28;20280;-70
2023/04/29 13:45:06;;;;;;;2.30;2.10;;;;;;;15.61;36.71;94670.59;5118366;28;20191;-70
2023/04/29 13:47:32;;;;;;;2.20;2.00;;;;;;;15.62;36.28;94665.84;5117718;28;20180;-73
2023/04/29 13:50:00;;;;;;;2.90;2.70;;;;;;;15.67;36.33;94665.47;5117648;28;20203;-74
2023/04/29 13:52:29;;;;;;;2.30;1.70;;;;;;;15.76;36.48;94660.31;5116155;28;20184;-73
2023/04/29 13:54:59;;;;;;;3.38;2.00;;;;;;;15.89;36.10;94658.72;5117073;28;20211;-73
2023/04/29 13:57:26;;;;;;;2.33;2.13;;;;;;;16.07;36.53;94658.72;5117360;28;20196;-74
2023/04/29 13:59:56;;;;;;;2.40;2.20;;;;;;;16.23;36.56;94663.06;5117492;28;20191;-73
2023/04/29 14:02:23;;;;;;;2.17;2.08;;;;;;;16.35;35.54;94659.91;5117240;28;20604;-74
2023/04/29 14:04:51;;;;;;;2.42;2.20;;;;;;;16.46;35.54;94657.09;5117456;28;20256;-73
2023/04/29 14:07:20;;;;;;;2.90;2.03;;;;;;;16.55;35.51;94652.69;5117564;28;20199;-74
2023/04/29 14:09:48;;;;;;;2.85;2.40;;;;;;;16.60;36.23;94649.50;5117041;28;20603;-73
2023/04/29 14:12:17;;;;;;;2.45;2.25;;;;;;;16.58;36.40;94651.09;5117585;28;20294;-74
2023/04/29 14:14:47;;;;;;;2.25;2.08;;;;;;;16.56;36.35;94647.94;5116876;28;20198;-72
2023/04/29 14:17:15;;;;;;;4.32;3.90;;;;;;;16.56;35.78;94642.38;5116496;28;20199;-68
2023/04/29 14:19:43;;;;;;;39.28;25.13;;;;;;;16.51;38.05;94639.97;5116774;28;20217;-71
2023/04/29 14:22:12;;;;;;;15.05;11.73;;;;;;;16.39;37.82;94641.19;5116875;28;20204;-72
2023/04/29 14:24:39;;;;;;;16.63;12.98;;;;;;;16.28;38.19;94646.00;5116964;28;20192;-71
2023/04/29 14:27:07;;;;;;;5.20;4.40;;;;;;;16.19;38.07;94648.38;5115257;28;20191;-72
2023/04/29 14:29:36;;;;;;;3.58;3.28;;;;;;;16.15;37.34;94636.47;5114524;28;20518;-72
2023/04/29 14:32:06;;;;;;;3.55;3.00;;;;;;;16.19;37.00;94638.03;5114936;28;20199;-69
2023/04/29 14:34:35;;;;;;;3.45;2.80;;;;;;;16.16;37.41;94647.22;5115260;28;20541;-67
2023/04/29 14:37:03;;;;;;;4.18;2.90;;;;;;;16.16;37.29;94638.03;5114536;28;20238;-67
2023/04/29 14:39:34;;;;;;;3.40;3.03;;;;;;;16.17;37.00;94636.88;5114820;28;20196;-67
2023/04/29 14:42:03;;;;;;;3.53;3.10;;;;;;;16.19;37.22;94638.03;5114820;28;20206;-67
2023/04/29 14:44:30;;;;;;;3.45;3.15;;;;;;;16.24;36.77;94625.72;5113975;28;20227;-67
2023/04/29 14:47:00;;;;;;;4.07;2.95;;;;;;;16.21;37.04;94638.44;5114339;28;20195;-67
2023/04/29 14:49:27;;;;;;;3.60;3.17;;;;;;;16.14;36.96;94627.31;5114682;28;20295;-67
2023/04/29 14:51:56;;;;;;;5.18;3.33;;;;;;;16.02;38.03;94619.41;5114311;28;20202;-67
2023/04/29 14:54:25;;;;;;;4.07;3.20;;;;;;;15.93;38.00;94625.34;5114645;28;20744;-67
2023/04/29 14:56:54;;;;;;;3.30;3.00;;;;;;;15.87;38.93;94626.97;5114256;28;20215;-67
2023/04/29 14:59:21;;;;;;;5.07;3.38;;;;;;;15.83;37.96;94626.97;5114575;28;20199;-68
2023/04/29 15:01:50;;;;;;;3.90;3.58;;;;;;;15.81;38.53;94621.00;5114614;28;20199;-73
2023/04/29 15:04:19;;;;;;;3.28;2.97;;;;;;;15.72;38.55;94622.56;5115141;28;20223;-75
2023/04/29 15:06:49;;;;;;;3.60;2.97;;;;;;;15.65;38.80;94620.56;5118772;28;20199;-73
2023/04/29 15:09:19;;;;;;;5.18;4.15;;;;;;;15.58;39.49;94615.00;5119665;28;20537;-71
2023/04/29 15:11:47;;;;;;;4.85;4.45;;;;;;;15.61;38.43;94603.06;5118535;28;20207;-70
2023/04/29 15:14:14;;;;;;;4.20;3.30;;;;;;;15.67;38.40;94612.66;5119527;28;20184;-71
2023/04/29 15:17:19;;;;;;;4.72;3.40;;;;;;;15.70;38.04;94614.63;5118272;28;20215;-71
2023/04/29 15:20:24;;;;;;;2.90;2.70;;;;;;;15.70;37.97;94609.06;5118306;28;20207;-71
2023/04/29 15:23:31;;;;;;;3.25;2.60;;;;;;;15.64;37.79;94605.06;5118682;28;20266;-71
2023/04/29 15:26:41;;;;;;;3.53;3.33;;;;;;;15.61;37.87;94605.84;5119356;28;20180;-74
2023/04/29 15:29:46;;;;;;;3.28;2.95;;;;;;;15.60;38.44;94604.28;5119162;28;20238;-68
2023/04/29 15:32:52;;;;;;;3.90;2.92;;;;;;;15.57;37.76;94596.72;5119077;28;20195;-67
2023/04/29 15:36:07;;;;;;;3.70;3.40;;;;;;;15.54;37.90;94600.28;5118037;28;20219;-67
2023/04/29 15:39:13;;;;;;;4.65;2.78;;;;;;;15.50;38.08;94596.72;5118049;28;20203;-67
2023/04/29 15:42:16;;;;;;;5.65;4.32;;;;;;;15.52;38.44;94597.13;5117786;28;20214;-67
2023/04/29 15:45:22;;;;;;;7.15;4.63;;;;;;;15.53;38.46;94585.59;5118056;28;20196;-67
2023/04/29 15:48:26;;;;;;;3.75;3.38;;;;;;;15.53;38.14;94595.94;5118510;28;20203;-67
2023/04/29 15:51:31;;;;;;;3.67;2.97;;;;;;;15.49;38.40;94595.94;5118973;27;20195;-67
2023/04/29 15:54:36;;;;;;;5.00;3.20;;;;;;;15.46;38.49;94596.72;5117582;28;20199;-66
2023/04/29 15:57:41;;;;;;;5.57;3.45;;;;;;;15.44;38.64;94588.00;5117468;28;20211;-66
2023/04/29 16:00:46;;;;;;;3.63;3.30;;;;;;;15.43;38.73;94591.16;5117802;28;20225;-66
2023/04/29 16:03:50;;;;;;;3.40;3.10;;;;;;;15.38;38.71;94587.56;5117904;28;20199;-66
2023/04/29 16:06:54;;;;;;;4.43;3.40;;;;;;;15.38;38.21;94593.13;5117341;28;20535;-66
2023/04/29 16:09:59;;;;;;;4.00;3.63;;;;;;;15.36;38.67;94592.75;5117925;28;20638;-68
2023/04/29 16:13:04;;;;;;;4.40;3.35;;;;;;;15.33;38.34;94595.53;5118439;28;20248;-68
2023/04/29 16:15:32;;;;;;;3.72;3.42;;;;;;;15.33;38.82;94589.97;5116915;28;20215;-74
2023/04/29 16:18:00;;;;;;;3.92;3.50;;;;;;;15.32;39.78;94591.13;5117515;28;20202;-75
2023/04/29 16:20:32;;;;;;;5.05;3.92;;;;;;;15.31;40.63;94598.69;5118384;28;20199;-74
2023/04/29 16:22:59;;;;;;;4.30;3.53;;;;;;;15.27;41.14;94594.31;5119472;28;20211;-72
2023/04/29 16:25:25;;;;;;;5.70;4.13;;;;;;;15.24;40.70;94595.88;5117724;28;20287;-74
2023/04/29 16:27:52;;;;;;;5.13;3.67;;;;;;;15.23;40.13;94597.09;5117707;28;20206;-75
2023/04/29 16:30:21;;;;;;;5.75;3.40;;;;;;;15.20;39.91;94597.06;5117590;28;20211;-74
2023/04/29 16:32:54;;;;;;;4.10;3.55;;;;;;;15.20;40.58;94603.44;5118308;28;20192;-72
2023/04/29 16:35:24;;;;;;;4.32;3.92;;;;;;;15.20;40.69;94610.97;5117701;28;20209;-75
2023/04/29 16:37:53;;;;;;;5.30;4.13;;;;;;;15.16;41.27;94603.41;5119041;28;20241;-75
2023/04/29 16:40:23;;;;;;;5.45;4.95;;;;;;;15.13;41.63;94611.75;5117595;28;20207;-75
2023/04/29 16:42:52;;;;;;;7.03;4.57;;;;;;;15.09;41.64;94603.41;5117217;28;20696;-71
2023/04/29 16:45:18;;;;;;;4.60;4.22;;;;;;;15.07;41.34;94616.91;5117586;28;20202;-72
2023/04/29 16:47:45;;;;;;;5.22;4.72;;;;;;;15.07;41.86;94614.13;5116909;28;20192;-70
2023/04/29 16:50:16;;;;;;;7.07;6.07;;;;;;;15.05;42.73;94622.03;5116928;28;20199;-71
2023/04/29 16:52:44;;;;;;;6.82;6.13;;;;;;;15.02;43.37;94616.47;5118019;28;20512;-76
2023/04/29 16:55:12;;;;;;;7.15;6.00;;;;;;;15.02;43.65;94624.81;5117467;28;20187;-75
2023/04/29 16:57:43;;;;;;;6.80;5.25;;;;;;;15.01;44.03;94628.78;5117187;28;20212;-74
2023/04/29 17:00:12;;;;;;;7.38;5.95;;;;;;;15.02;43.57;94630.38;5117816;28;20225;-73
2023/04/29 17:02:43;;;;;;;8.52;5.95;;;;;;;15.00;43.59;94644.66;5117075;28;20203;-74
2023/04/29 17:05:12;;;;;;;5.40;4.60;;;;;;;14.99;42.80;94645.03;5117573;28;20203;-73
2023/04/29 17:07:43;;;;;;;4.80;4.30;;;;;;;14.97;42.72;94644.63;5116634;28;20199;-73
2023/04/29 17:10:11;;;;;;;6.45;4.68;;;;;;;14.91;43.19;94639.44;5117425;28;20195;-74
2023/04/29 17:12:39;;;;;;;4.25;3.85;;;;;;;14.84;43.61;94635.84;5116577;28;20616;-75
2023/04/29 17:15:07;;;;;;;5.85;4.53;;;;;;;14.76;44.21;94632.25;5118575;28;20184;-74
2023/04/29 17:17:36;;;;;;;4.22;3.83;;;;;;;14.70;43.71;94642.13;5117162;28;20219;-74
2023/04/29 17:20:07;;;;;;;4.38;3.72;;;;;;;14.64;44.30;94641.72;5118592;28;20194;-74
2023/04/29 17:22:35;;;;;;;4.50;4.10;;;;;;;14.56;45.27;94640.09;5118389;28;20521;-75
2023/04/29 17:25:08;;;;;;;5.03;4.15;;;;;;;14.55;45.55;94637.69;5117523;28;20245;-76
2023/04/29 17:27:35;;;;;;;5.43;4.18;;;;;;;14.52;46.05;94644.03;5118086;28;20195;-80
2023/04/29 17:30:06;;;;;;;5.05;4.65;;;;;;;14.47;46.43;94636.84;5120980;28;20231;-78
2023/04/29 17:32:37;;;;;;;6.78;5.32;;;;;;;14.48;45.90;94646.75;5121501;28;20188;-79
2023/04/29 17:35:07;;;;;;;5.00;4.60;;;;;;;14.48;46.05;94652.31;5121668;28;20200;-81
2023/04/29 17:37:39;;;;;;;5.00;4.15;;;;;;;14.47;46.26;94652.69;5117069;28;20207;-77
2023/04/29 17:40:19;;;;;;;4.80;4.30;;;;;;;14.43;46.56;94653.47;5116006;28;20199;-75
2023/04/29 17:42:49;;;;;;;4.43;3.90;;;;;;;14.41;46.67;94643.94;5116004;28;20231;-76
2023/04/29 17:45:17;;;;;;;5.18;3.97;;;;;;;14.40;46.74;94651.47;5116385;28;20180;-75
2023/04/29 17:47:45;;;;;;;6.03;4.32;;;;;;;14.37;48.30;94652.25;5115378;28;20187;-75
2023/04/29 17:50:13;;;;;;;4.53;4.13;;;;;;;14.32;49.73;94652.63;5117206;28;20200;-75
2023/04/29 17:52:42;;;;;;;5.82;4.57;;;;;;;14.20;51.76;94647.41;5116570;28;20210;-75
2023/04/29 17:55:19;;;;;;;6.95;4.82;;;;;;;14.07;53.31;94646.09;5116369;28;20180;-77
2023/04/29 17:57:45;;;;;;;5.40;4.90;;;;;;;13.96;55.20;94648.81;5116319;28;20203;-77
2023/04/29 18:00:14;;;;;;;5.43;4.88;;;;;;;13.87;56.20;94654.69;5116740;28;20600;-76
2023/04/29 18:02:42;;;;;;;5.60;4.97;;;;;;;13.79;56.30;94649.44;5115176;28;20203;-76
2023/04/29 18:05:10;;;;;;;5.20;4.65;;;;;;;13.77;55.88;94649.84;5115746;28;20257;-76
2023/04/29 18:07:39;;;;;;;5.82;5.32;;;;;;;13.78;55.30;94651.44;5115883;28;20222;-76
2023/04/29 18:10:09;;;;;;;5.47;5.00;;;;;;;13.79;55.95;94655.00;5116203;28;20200;-76
2023/04/29 18:12:40;;;;;;;5.30;4.80;;;;;;;13.76;55.32;94653.00;5115207;28;20245;-76
2023/04/29 18:15:12;;;;;;;5.38;4.88;;;;;;;13.76;54.63;94650.22;5116290;28;20210;-76
2023/04/29 18:17:42;;;;;;;5.50;5.00;;;;;;;13.79;54.24;94655.00;5116029;28;20199;-76
2023/04/29 18:20:14;;;;;;;5.13;4.72;;;;;;;13.81;53.92;94647.91;5115557;28;20299;-77
2023/04/29 18:22:45;;;;;;;6.28;4.40;;;;;;;13.81;53.95;94649.88;5115639;28;20284;-77
2023/04/29 18:25:15;;;;;;;5.00;4.25;;;;;;;13.80;53.40;94656.59;5099246;28;20200;-78
2023/04/29 18:27:48;;;;;;;4.38;4.07;;;;;;;13.81;53.51;94655.41;5116062;28;20241;-77
2023/04/29 18:30:15;;;;;;;5.03;4.50;;;;;;;13.83;53.29;94653.84;5115972;28;20274;-77
2023/04/29 18:32:44;;;;;;;5.18;4.68;;;;;;;13.85;53.49;94656.25;5115658;28;20262;-77
2023/04/29 18:35:12;;;;;;;5.43;4.93;;;;;;;13.84;53.33;94649.13;5116028;28;20183;-77
2023/04/29 18:37:41;;;;;;;5.75;5.15;;;;;;;13.83;54.12;94651.06;5114811;28;20310;-78
2023/04/29 18:40:11;;;;;;;5.50;4.75;;;;;;;13.86;54.05;94650.31;5114929;28;20600;-76